createdAt,value
2023-01-30T00:02:08.971Z,75.17
2023-01-30T00:05:14.627Z,75.83
2023-01-30T00:08:17.268Z,76.16
2023-01-30T00:11:22.132Z,76.47
2023-01-30T00:14:24.723Z,76.92
2023-01-30T00:17:27.649Z,77.32
2023-01-30T00:20:30.643Z,77.83
2023-01-30T00:23:34.566Z,78.09
2023-01-30T00:26:38.941Z,78.38
2023-01-30T00:29:42.334Z,78.74
2023-01-30T00:32:45.879Z,77.59
2023-01-30T00:35:49.349Z,77.02
2023-01-30T00:38:52.097Z,77.47
2023-01-30T00:42:13.740Z,77.54
2023-01-30T00:45:33.981Z,78.11
2023-01-30T00:48:36.622Z,78.08
2023-01-30T00:51:39.225Z,78.14
2023-01-30T00:54:41.936Z,78.36
2023-01-30T00:57:47.049Z,78.15
2023-01-30T01:00:50.345Z,77.90
2023-01-30T01:03:52.989Z,77.60
2023-01-30T01:06:55.586Z,77.48
2023-01-30T01:09:59.284Z,77.45
2023-01-30T01:13:03.454Z,77.27
2023-01-30T01:16:07.074Z,75.85
2023-01-30T01:19:09.722Z,75.30
2023-01-30T01:22:12.464Z,75.32
2023-01-30T01:25:15.264Z,75.65
2023-01-30T01:28:22.265Z,75.56
2023-01-30T01:31:25.665Z,75.94
2023-01-30T01:34:28.506Z,75.21
2023-01-30T01:37:31.540Z,75.07
2023-01-30T01:40:51.655Z,74.48
2023-01-30T01:44:04.454Z,74.65
2023-01-30T01:47:09.767Z,74.58
2023-01-30T01:50:15.180Z,74.27
2023-01-30T01:53:20.247Z,74.57
2023-01-30T01:56:23.845Z,74.14
2023-01-30T01:59:31.057Z,73.39
2023-01-30T02:02:35.210Z,72.67
2023-01-30T02:05:40.287Z,72.65
2023-01-30T02:08:45.925Z,72.76
2023-01-30T02:11:50.904Z,73.59
2023-01-30T02:14:56.260Z,74.41
2023-01-30T02:17:59.049Z,74.04
2023-01-30T02:21:25.313Z,73.91
2023-01-30T02:24:37.122Z,74.22
2023-01-30T02:27:55.190Z,74.69
2023-01-30T02:31:11.791Z,74.92
2023-01-30T02:34:27.642Z,75.06
2023-01-30T02:37:36.588Z,74.89
2023-01-30T02:40:43.613Z,74.76
2023-01-30T02:43:52.823Z,74.67
2023-01-30T02:46:58.840Z,75.15
2023-01-30T02:50:05.562Z,75.51
2023-01-30T02:53:08.856Z,75.46
2023-01-30T02:56:11.510Z,75.71
2023-01-30T02:59:15.819Z,75.81
2023-01-30T03:02:36.452Z,75.91
2023-01-30T03:05:46.745Z,75.96
2023-01-30T03:08:56.670Z,76.73
2023-01-30T03:12:04.122Z,76.41
2023-01-30T03:15:11.672Z,76.46
2023-01-30T03:18:16.139Z,75.72
2023-01-30T03:21:19.182Z,75.49
2023-01-30T03:24:22.033Z,74.14
2023-01-30T03:27:25.138Z,72.46
2023-01-30T03:30:28.462Z,71.74
2023-01-30T03:33:32.709Z,70.28
2023-01-30T03:36:35.774Z,69.84
2023-01-30T03:39:38.520Z,68.84
2023-01-30T03:42:42.042Z,68.23
2023-01-30T03:45:44.836Z,67.88
2023-01-30T03:48:48.742Z,66.95
2023-01-30T03:51:51.901Z,67.41
2023-01-30T03:54:54.548Z,66.91
2023-01-30T03:57:57.792Z,66.63
2023-01-30T04:01:00.500Z,66.04
2023-01-30T04:04:04.590Z,65.10
2023-01-30T04:07:07.276Z,65.18
2023-01-30T04:10:10.889Z,64.54
2023-01-30T04:13:13.737Z,64.01
2023-01-30T04:16:18.321Z,63.81
2023-01-30T04:19:22.363Z,63.64
2023-01-30T04:22:25.071Z,63.36
2023-01-30T04:25:27.772Z,63.25
2023-01-30T04:28:30.766Z,63.15
2023-01-30T04:31:33.872Z,62.92
2023-01-30T04:34:37.952Z,62.52
2023-01-30T04:37:40.778Z,62.27
2023-01-30T04:40:43.481Z,61.49
2023-01-30T04:43:46.273Z,60.98
2023-01-30T04:46:48.907Z,60.43
2023-01-30T04:49:53.693Z,60.06
2023-01-30T04:52:56.307Z,60.11
2023-01-30T04:55:59.010Z,59.86
2023-01-30T04:59:01.771Z,59.72
2023-01-30T05:02:06.941Z,60.44
2023-01-30T05:05:11.360Z,59.92
2023-01-30T05:08:14.018Z,60.40
2023-01-30T05:11:16.789Z,59.57
2023-01-30T05:14:19.383Z,59.76
2023-01-30T05:17:22.126Z,59.87
2023-01-30T05:20:26.326Z,60.06
2023-01-30T05:23:28.928Z,60.16
2023-01-30T05:26:32.295Z,60.75
2023-01-30T05:29:35.448Z,60.30
2023-01-30T05:32:38.284Z,59.73
2023-01-30T05:35:47.713Z,59.61
2023-01-30T05:38:50.652Z,58.96
2023-01-30T05:41:53.244Z,59.01
2023-01-30T05:44:55.953Z,58.79
2023-01-30T05:48:01.333Z,58.94
2023-01-30T05:51:06.003Z,59.83
2023-01-30T05:54:08.902Z,59.23
2023-01-30T05:57:11.579Z,60.30
2023-01-30T06:00:15.558Z,59.83
2023-01-30T06:03:18.068Z,59.75
2023-01-30T06:06:22.471Z,60.19
2023-01-30T06:09:25.339Z,60.06
2023-01-30T06:12:28.007Z,59.96
2023-01-30T06:15:30.954Z,59.66
2023-01-30T06:18:33.668Z,59.85
2023-01-30T06:21:37.807Z,59.69
2023-01-30T06:24:40.390Z,59.93
2023-01-30T06:27:43.911Z,60.42
2023-01-30T06:30:46.621Z,61.13
2023-01-30T06:33:50.160Z,61.28
2023-01-30T06:36:54.114Z,60.94
2023-01-30T06:39:57.000Z,61.74
2023-01-30T06:42:59.671Z,61.30
2023-01-30T06:46:02.424Z,61.71
2023-01-30T06:49:05.455Z,61.23
2023-01-30T06:52:09.465Z,61.36
2023-01-30T06:55:14.218Z,61.14
2023-01-30T06:58:16.921Z,61.07
2023-01-30T07:01:21.234Z,60.77
2023-01-30T07:04:33.146Z,60.94
2023-01-30T07:07:41.692Z,61.54
2023-01-30T07:10:47.429Z,60.88
2023-01-30T07:13:51.848Z,61.49
2023-01-30T07:16:58.746Z,60.44
2023-01-30T07:20:09.673Z,60.31
2023-01-30T07:26:48.228Z,60.44
2023-01-30T07:29:57.092Z,60.44
2023-01-30T07:33:05.708Z,60.50
2023-01-30T07:36:12.314Z,60.48
2023-01-30T07:39:31.776Z,60.56
2023-01-30T07:42:37.451Z,60.08
2023-01-30T07:45:57.085Z,60.31
2023-01-30T07:49:09.155Z,60.63
2023-01-30T07:52:12.554Z,60.11
2023-01-30T07:55:19.345Z,59.86
2023-01-30T07:58:24.166Z,60.14
2023-01-30T08:01:26.993Z,60.31
2023-01-30T08:04:32.030Z,60.24
2023-01-30T08:07:34.813Z,60.69
2023-01-30T08:10:42.549Z,61.24
2023-01-30T08:13:47.299Z,61.13
2023-01-30T08:16:52.706Z,59.49
2023-01-30T08:19:56.537Z,60.42
2023-01-30T08:23:10.426Z,59.81
2023-01-30T08:26:14.509Z,61.08
2023-01-30T08:29:18.610Z,61.97
2023-01-30T08:32:23.024Z,62.33
2023-01-30T08:35:31.754Z,62.57
2023-01-30T08:38:37.189Z,62.24
2023-01-30T08:41:46.469Z,61.66
2023-01-30T08:44:51.157Z,60.37
2023-01-30T08:47:54.008Z,60.50
2023-01-30T08:50:58.974Z,60.57
2023-01-30T08:54:21.710Z,59.85
2023-01-30T08:57:25.808Z,59.33
2023-01-30T09:00:37.834Z,58.39
2023-01-30T09:03:40.803Z,58.70
2023-01-30T09:06:44.597Z,58.48
2023-01-30T09:09:53.869Z,59.58
2023-01-30T09:13:02.175Z,59.06
2023-01-30T09:16:09.454Z,56.85
2023-01-30T09:19:17.868Z,55.18
2023-01-30T09:22:30.664Z,53.75
2023-01-30T09:25:35.101Z,54.72
2023-01-30T09:28:43.805Z,54.34
2023-01-30T09:31:47.432Z,56.75
2023-01-30T09:34:54.115Z,56.55
2023-01-30T09:41:55.973Z,58.11
2023-01-30T09:45:18.033Z,57.23
2023-01-30T09:48:25.758Z,57.16
2023-01-30T09:51:52.193Z,57.92
2023-01-30T09:55:16.020Z,56.33
2023-01-30T09:59:03.441Z,56.49
2023-01-30T10:02:39.777Z,56.44
2023-01-30T10:06:00.531Z,55.94
2023-01-30T10:13:07.249Z,55.52
2023-01-30T10:16:29.442Z,56.26
2023-01-30T10:20:00.157Z,56.09
2023-01-30T10:23:34.328Z,57.27
2023-01-30T10:26:38.933Z,56.28
2023-01-30T10:30:24.096Z,56.27
2023-01-30T10:33:39.071Z,56.91
2023-01-30T10:37:13.989Z,57.60
2023-01-30T10:40:24.826Z,57.49
2023-01-30T10:43:43.459Z,57.78
2023-01-30T10:47:41.754Z,59.05
2023-01-30T10:51:00.308Z,59.63
2023-01-30T10:54:26.375Z,59.99
2023-01-30T11:05:49.699Z,61.14
2023-01-30T11:09:02.798Z,61.79
2023-01-30T11:12:34.051Z,61.29
2023-01-30T11:16:16.531Z,62.01
2023-01-30T11:19:39.081Z,63.57
2023-01-30T11:23:10.168Z,64.55
2023-01-30T11:26:55.167Z,64.29
2023-01-30T11:30:15.255Z,63.71
2023-01-30T11:33:25.068Z,63.97
2023-01-30T11:36:31.251Z,63.20
2023-01-30T11:40:05.718Z,63.52
2023-01-30T11:43:14.834Z,66.92
2023-01-30T11:46:27.046Z,69.07
2023-01-30T11:49:48.123Z,71.12
2023-01-30T11:53:03.887Z,71.52
2023-01-30T11:56:15.419Z,71.63
2023-01-30T11:59:26.136Z,71.52
2023-01-30T12:02:33.970Z,70.38
2023-01-30T12:05:42.348Z,70.43
2023-01-30T12:08:45.354Z,71.39
2023-01-30T12:11:48.242Z,71.71
2023-01-30T12:14:57.418Z,72.24
2023-01-30T12:18:07.234Z,73.02
2023-01-30T12:21:15.136Z,73.90
2023-01-30T12:24:23.366Z,74.00
2023-01-30T12:27:33.139Z,73.97
2023-01-30T12:33:44.134Z,75.25
2023-01-30T12:36:51.694Z,72.89
2023-01-30T12:40:07.649Z,73.77
2023-01-30T12:43:35.309Z,73.76
2023-01-30T12:47:05.102Z,74.65
2023-01-30T12:50:58.766Z,75.17
2023-01-30T12:54:15.167Z,75.01
2023-01-30T12:57:31.430Z,75.18
2023-01-30T13:01:05.269Z,76.11
2023-01-30T13:04:15.288Z,75.71
2023-01-30T13:07:23.341Z,76.11
2023-01-30T13:10:32.428Z,76.61
2023-01-30T13:13:48.322Z,76.61
2023-01-30T13:17:01.600Z,76.24
2023-01-30T13:20:06.740Z,75.32
2023-01-30T13:23:18.852Z,75.38
2023-01-30T13:26:41.840Z,74.85
2023-01-30T13:29:45.794Z,73.81
2023-01-30T13:33:02.910Z,73.52
2023-01-30T13:36:12.810Z,73.24
2023-01-30T13:39:18.890Z,73.73
2023-01-30T13:42:32.904Z,73.25
2023-01-30T13:45:37.885Z,72.23
2023-01-30T13:48:52.698Z,71.01
2023-01-30T13:51:58.762Z,71.14
2023-01-30T13:55:12.507Z,71.78
2023-01-30T13:58:30.449Z,71.74
2023-01-30T14:02:14.257Z,71.87
2023-01-30T14:05:59.479Z,71.88
2023-01-30T14:09:06.082Z,71.67
2023-01-30T14:12:18.548Z,71.28
2023-01-30T14:15:28.950Z,70.57
2023-01-30T14:18:36.291Z,68.77
2023-01-30T14:21:49.293Z,67.74
2023-01-30T14:25:38.121Z,69.19
2023-01-30T14:28:48.531Z,67.72
2023-01-30T14:31:57.194Z,66.91
2023-01-30T14:35:21.570Z,67.47
2023-01-30T14:38:26.916Z,67.25
2023-01-30T14:41:43.238Z,66.52
2023-01-30T14:45:10.198Z,65.92
2023-01-30T14:48:54.970Z,65.66
2023-01-30T14:52:02.136Z,65.90
2023-01-30T14:55:05.845Z,66.90
2023-01-30T14:58:13.835Z,66.58
2023-01-30T15:01:18.539Z,67.46
2023-01-30T15:04:34.167Z,65.77
2023-01-30T15:08:00.861Z,60.71
2023-01-30T15:14:53.340Z,63.67
2023-01-30T15:18:13.950Z,63.75
2023-01-30T15:21:40.803Z,65.42
2023-01-30T15:25:13.587Z,65.05
2023-01-30T15:28:33.843Z,65.07
2023-01-30T15:31:36.652Z,64.48
2023-01-30T15:34:41.807Z,64.74
2023-01-30T15:37:50.978Z,65.03
2023-01-30T15:40:54.806Z,65.26
2023-01-30T15:44:06.224Z,65.24
2023-01-30T15:47:23.335Z,65.75
2023-01-30T15:50:26.204Z,66.41
2023-01-30T15:53:32.207Z,66.61
2023-01-30T15:56:35.018Z,67.55
2023-01-30T15:59:40.178Z,67.75
2023-01-30T16:02:44.198Z,67.68
2023-01-30T16:05:50.488Z,68.12
2023-01-30T16:09:00.355Z,68.57
2023-01-30T16:12:03.337Z,68.21
2023-01-30T16:15:18.832Z,68.81
2023-01-30T16:18:30.385Z,69.26
2023-01-30T16:21:34.447Z,69.11
2023-01-30T16:24:42.103Z,69.18
2023-01-30T16:28:16.095Z,68.98
2023-01-30T16:31:19.278Z,69.00
2023-01-30T16:34:28.773Z,69.93
2023-01-30T16:37:31.841Z,69.60
2023-01-30T16:40:46.341Z,69.59
2023-01-30T16:44:08.519Z,69.83
2023-01-30T16:47:24.013Z,69.88
2023-01-30T16:50:26.818Z,69.31
2023-01-30T16:53:32.130Z,69.56
2023-01-30T16:56:36.769Z,69.42
2023-01-30T16:59:40.279Z,69.59
2023-01-30T17:02:43.617Z,69.90
2023-01-30T17:05:48.751Z,69.51
2023-01-30T17:08:55.116Z,69.75
2023-01-30T17:12:01.369Z,70.39
2023-01-30T17:15:29.889Z,70.65
2023-01-30T17:18:32.504Z,71.40
2023-01-30T17:21:44.195Z,70.89
2023-01-30T17:24:46.994Z,71.27
2023-01-30T17:27:58.622Z,71.20
2023-01-30T17:31:03.732Z,70.98
2023-01-30T17:34:06.482Z,71.28
2023-01-30T17:37:11.772Z,71.63
2023-01-30T17:40:17.062Z,71.79
2023-01-30T17:43:21.341Z,72.13
2023-01-30T17:46:28.222Z,72.48
2023-01-30T17:49:32.910Z,72.71
2023-01-30T17:52:40.073Z,72.81
2023-01-30T17:55:44.886Z,72.79
2023-01-30T17:58:50.938Z,72.53
2023-01-30T18:01:54.610Z,72.43
2023-01-30T18:04:57.374Z,72.87
2023-01-30T18:08:14.408Z,73.04
2023-01-30T18:11:26.374Z,73.47
2023-01-30T18:14:32.984Z,73.24
2023-01-30T18:18:05.495Z,73.13
2023-01-30T18:21:08.519Z,72.74
2023-01-30T18:24:14.271Z,73.34
2023-01-30T18:27:22.451Z,72.85
2023-01-30T18:30:28.757Z,72.83
2023-01-30T18:33:34.396Z,72.37
2023-01-30T18:36:37.519Z,72.50
2023-01-30T18:39:40.392Z,71.79
2023-01-30T18:42:43.312Z,71.61
2023-01-30T18:45:51.267Z,71.25
2023-01-30T18:48:54.212Z,70.85
2023-01-30T18:51:57.085Z,70.65
2023-01-30T18:55:00.455Z,70.67
2023-01-30T18:58:03.141Z,70.81
2023-01-30T19:01:16.907Z,70.52
2023-01-30T19:04:19.628Z,70.64
2023-01-30T19:07:22.331Z,70.97
2023-01-30T19:10:30.194Z,71.84
2023-01-30T19:13:36.568Z,72.14
2023-01-30T19:16:41.067Z,72.24
2023-01-30T19:19:46.184Z,72.90
2023-01-30T19:22:49.772Z,73.61
2023-01-30T19:25:55.709Z,72.85
2023-01-30T19:28:59.707Z,72.67
2023-01-30T19:32:04.007Z,71.62
2023-01-30T19:35:07.854Z,71.54
2023-01-30T19:38:10.704Z,71.18
2023-01-30T19:41:14.352Z,71.34
2023-01-30T19:44:17.225Z,70.90
2023-01-30T19:47:23.283Z,70.88
2023-01-30T19:50:26.039Z,70.96
2023-01-30T19:53:28.842Z,70.66
2023-01-30T19:56:32.176Z,70.41
2023-01-30T19:59:39.469Z,70.34
2023-01-30T20:02:44.360Z,70.26
2023-01-30T20:05:47.027Z,69.89
2023-01-30T20:08:54.356Z,70.37
2023-01-30T20:11:57.070Z,70.38
2023-01-30T20:14:59.935Z,70.45
2023-01-30T20:18:03.922Z,69.75
2023-01-30T20:21:08.450Z,70.09
2023-01-30T20:24:12.872Z,69.58
2023-01-30T20:27:15.589Z,69.81
2023-01-30T20:30:19.826Z,70.46
2023-01-30T20:33:24.720Z,69.79
2023-01-30T20:36:28.014Z,69.80
2023-01-30T20:39:30.721Z,70.43
2023-01-30T20:42:35.736Z,70.01
2023-01-30T20:45:38.533Z,69.76
2023-01-30T20:48:43.261Z,69.60
2023-01-30T20:51:46.994Z,70.29
2023-01-30T20:54:50.027Z,70.33
2023-01-30T20:57:52.801Z,69.97
2023-01-30T21:00:55.716Z,69.72
2023-01-30T21:03:59.855Z,69.85
2023-01-30T21:07:02.440Z,69.83
2023-01-30T21:10:09.355Z,70.13
2023-01-30T21:13:15.775Z,69.76
2023-01-30T21:16:21.746Z,69.77
2023-01-30T21:19:25.813Z,70.12
2023-01-30T21:22:29.759Z,69.89
2023-01-30T21:25:37.168Z,69.80
2023-01-30T21:28:48.512Z,69.85
2023-01-30T21:31:51.586Z,69.21
2023-01-30T21:34:56.799Z,69.22
2023-01-30T21:38:16.987Z,69.06
2023-01-30T21:41:38.962Z,68.85
2023-01-30T21:44:41.818Z,69.15
2023-01-30T21:47:44.528Z,68.74
2023-01-30T21:50:50.961Z,68.61
2023-01-30T21:53:54.037Z,68.65
2023-01-30T21:56:56.999Z,68.94
2023-01-30T21:59:59.847Z,69.15
2023-01-30T22:03:02.485Z,69.17
2023-01-30T22:06:07.632Z,69.23
2023-01-30T22:09:13.798Z,68.91
2023-01-30T22:12:16.415Z,69.08
2023-01-30T22:15:20.797Z,69.10
2023-01-30T22:18:23.596Z,69.59
2023-01-30T22:21:28.960Z,69.28
2023-01-30T22:24:31.751Z,69.30
2023-01-30T22:27:34.588Z,69.15
2023-01-30T22:30:37.357Z,69.24
2023-01-30T22:33:40.607Z,69.25
2023-01-30T22:36:44.615Z,69.44
2023-01-30T22:39:47.394Z,68.87
2023-01-30T22:42:50.212Z,69.22
2023-01-30T22:45:52.765Z,69.43
2023-01-30T22:48:55.482Z,69.32
2023-01-30T22:52:01.590Z,68.81
2023-01-30T22:55:04.305Z,69.11
2023-01-30T22:58:07.147Z,68.90
2023-01-30T23:01:13.351Z,69.04
2023-01-30T23:04:18.790Z,69.16
2023-01-30T23:07:22.767Z,68.46
2023-01-30T23:10:25.582Z,67.82
2023-01-30T23:13:28.188Z,67.83
2023-01-30T23:16:33.503Z,68.03
2023-01-30T23:19:35.636Z,68.30
2023-01-30T23:22:40.167Z,67.77
2023-01-30T23:25:43.534Z,67.94
2023-01-30T23:28:46.305Z,67.80
2023-01-30T23:31:49.117Z,67.81
2023-01-30T23:34:51.681Z,67.92
2023-01-30T23:38:13.127Z,67.96
2023-01-30T23:41:17.111Z,68.06
2023-01-30T23:44:20.017Z,67.39
2023-01-30T23:47:22.578Z,67.92
2023-01-30T23:50:25.164Z,67.93
2023-01-30T23:53:29.313Z,67.68
2023-01-30T23:56:34.048Z,67.80
2023-01-30T23:59:37.389Z,67.77
